Terminal Aerodrome Forecast
Issued by NWS Jackson, MS

Home | Current Version | Previous Version | Text Only | Print | Product List | Glossary On
Versions: 1 2 3 4 5 6 7 8 9 10 11 12 13 14
000
FTUS44 KJAN 241723
TAFMEI
TAF
KMEI 241723Z 2418/2518 17015G21KT P6SM FEW029 SCT035 BKN045
     FM241900 15015G21KT P6SM VCTS BKN040CB BKN250
     FM250000 14010KT P6SM BKN100
     FM250600 16009KT P6SM OVC015
     FM250800 16008KT 4SM BR OVC007
     FM251500 16011KT P6SM SCT015 OVC050=

USA.gov is the U.S. government's official web portal to all federal, state and local government web resources and services.